createdAt,value
2018-07-17T00:00:10.031Z,99.90
2018-07-17T00:04:14.391Z,99.90
2018-07-17T00:08:18.605Z,99.90
2018-07-17T00:12:22.797Z,99.90
2018-07-17T00:16:27.076Z,99.90
2018-07-17T00:20:31.306Z,99.90
2018-07-17T00:24:35.488Z,99.90
2018-07-17T00:28:39.859Z,99.90
2018-07-17T00:32:44.063Z,99.90
2018-07-17T00:36:48.253Z,99.90
2018-07-17T00:40:52.609Z,99.90
2018-07-17T00:44:56.826Z,99.90
2018-07-17T00:49:01.178Z,99.90
2018-07-17T00:53:05.421Z,99.90
2018-07-17T00:57:09.623Z,99.90
2018-07-17T01:01:18.897Z,99.90
2018-07-17T01:05:28.249Z,99.90
2018-07-17T01:09:37.596Z,99.90
2018-07-17T01:13:50.921Z,99.90
2018-07-17T01:17:55.120Z,99.90
2018-07-17T01:21:59.429Z,99.90
2018-07-17T01:26:03.649Z,99.90
2018-07-17T01:30:07.929Z,99.90
2018-07-17T01:34:12.205Z,99.90
2018-07-17T01:38:16.470Z,99.90
2018-07-17T01:42:20.694Z,99.90
2018-07-17T01:46:25.105Z,99.90
2018-07-17T01:50:29.360Z,99.90
2018-07-17T01:54:33.749Z,99.90
2018-07-17T01:58:37.929Z,99.90
2018-07-17T02:02:42.139Z,99.90
2018-07-17T02:06:46.633Z,99.90
2018-07-17T02:10:50.890Z,99.90
2018-07-17T02:14:55.067Z,99.90
2018-07-17T02:18:59.329Z,99.90
2018-07-17T02:23:03.720Z,99.90
2018-07-17T02:27:08.007Z,99.90
2018-07-17T02:31:12.181Z,99.90
2018-07-17T02:35:16.326Z,99.90
2018-07-17T02:39:20.705Z,99.90
2018-07-17T02:43:24.939Z,99.90
2018-07-17T02:47:29.185Z,99.90
2018-07-17T02:51:33.409Z,99.90
2018-07-17T02:55:37.645Z,99.90
2018-07-17T02:59:41.821Z,99.90
2018-07-17T03:03:46.173Z,99.90
2018-07-17T03:07:50.364Z,99.90
2018-07-17T03:11:54.565Z,99.90
2018-07-17T03:15:58.761Z,99.90
2018-07-17T03:20:02.979Z,99.90
2018-07-17T03:24:07.283Z,99.90
2018-07-17T03:28:11.465Z,99.90
2018-07-17T03:32:15.668Z,99.90
2018-07-17T03:36:20.005Z,99.90
2018-07-17T03:40:24.189Z,99.90
2018-07-17T03:44:28.429Z,99.90
2018-07-17T03:48:32.724Z,99.90
2018-07-17T03:52:37.042Z,99.90
2018-07-17T03:56:41.295Z,99.90
2018-07-17T04:00:45.767Z,99.90
2018-07-17T04:04:50.950Z,99.90
2018-07-17T04:08:55.260Z,99.90
2018-07-17T04:12:59.476Z,99.90
2018-07-17T04:17:03.721Z,99.90
2018-07-17T04:21:08.135Z,99.90
2018-07-17T04:25:12.431Z,97.20
2018-07-17T04:29:16.708Z,96.90
2018-07-17T04:33:21.126Z,97.00
2018-07-17T04:37:25.365Z,94.00
2018-07-17T04:41:29.674Z,93.20
2018-07-17T04:45:33.889Z,93.90
2018-07-17T04:49:38.269Z,93.70
2018-07-17T04:53:42.496Z,92.30
2018-07-17T04:57:46.816Z,91.40
2018-07-17T05:01:51.277Z,92.00
2018-07-17T05:05:55.602Z,92.50
2018-07-17T05:09:59.950Z,90.90
2018-07-17T05:14:04.527Z,90.50
2018-07-17T05:18:09.029Z,90.00
2018-07-17T05:22:13.414Z,84.90
2018-07-17T05:26:17.739Z,80.30
2018-07-17T05:30:22.021Z,79.80
2018-07-17T05:34:26.240Z,77.80
2018-07-17T05:38:30.661Z,75.90
2018-07-17T05:42:34.861Z,75.70
2018-07-17T05:46:39.190Z,74.80
2018-07-17T05:50:43.507Z,70.70
2018-07-17T05:54:47.664Z,70.90
2018-07-17T05:58:52.037Z,70.90
2018-07-17T06:02:56.332Z,72.80
2018-07-17T06:07:00.652Z,69.30
2018-07-17T06:11:04.897Z,72.50
2018-07-17T06:15:09.193Z,71.60
2018-07-17T06:19:13.606Z,68.60
2018-07-17T06:23:17.881Z,69.20
2018-07-17T06:27:22.259Z,64.70
2018-07-17T06:31:27.305Z,63.90
2018-07-17T06:35:31.506Z,62.50
2018-07-17T06:39:35.721Z,64.40
2018-07-17T06:43:40.003Z,65.20
2018-07-17T06:47:44.212Z,69.10
2018-07-17T06:51:48.685Z,61.70
2018-07-17T06:55:52.952Z,69.60
2018-07-17T06:59:57.216Z,67.20
2018-07-17T07:04:01.719Z,63.90
2018-07-17T07:08:07.196Z,58.70
2018-07-17T07:12:11.896Z,61.50
2018-07-17T07:16:17.273Z,56.90
2018-07-17T07:20:21.517Z,54.90
2018-07-17T07:24:25.715Z,55.10
2018-07-17T07:28:30.191Z,55.50
2018-07-17T07:32:34.450Z,55.20
2018-07-17T07:36:38.847Z,54.10
2018-07-17T07:40:43.077Z,56.20
2018-07-17T07:44:47.370Z,56.80
2018-07-17T07:48:51.695Z,56.70
2018-07-17T07:52:56.224Z,55.80
2018-07-17T07:57:00.465Z,55.40
2018-07-17T08:01:04.833Z,52.80
2018-07-17T08:05:09.161Z,52.00
2018-07-17T08:09:13.444Z,51.90
2018-07-17T08:13:17.670Z,54.30
2018-07-17T08:17:21.884Z,54.40
2018-07-17T08:21:26.169Z,63.30
2018-07-17T08:25:30.454Z,62.40
2018-07-17T08:29:34.788Z,62.50
2018-07-17T08:33:39.041Z,63.30
2018-07-17T08:37:43.245Z,63.10
2018-07-17T08:41:47.601Z,59.30
2018-07-17T08:45:51.877Z,57.20
2018-07-17T08:49:56.061Z,65.40
2018-07-17T08:54:00.425Z,58.10
2018-07-17T08:58:04.657Z,58.30
2018-07-17T09:02:09.116Z,59.10
2018-07-17T09:06:13.324Z,55.30
2018-07-17T09:10:17.597Z,57.40
2018-07-17T09:14:22.057Z,56.60
2018-07-17T09:18:26.347Z,52.90
2018-07-17T09:22:30.866Z,52.60
2018-07-17T09:26:35.221Z,53.90
2018-07-17T09:30:44.508Z,56.80
2018-07-17T09:34:48.914Z,59.60
2018-07-17T09:38:53.187Z,58.00
2018-07-17T09:42:57.468Z,48.20
2018-07-17T09:47:01.725Z,51.30
2018-07-17T09:51:06.011Z,52.30
2018-07-17T09:55:10.335Z,50.30
2018-07-17T09:59:14.703Z,47.60
2018-07-17T10:03:18.896Z,49.20
2018-07-17T10:07:23.317Z,53.60
2018-07-17T10:11:27.575Z,48.90
2018-07-17T10:15:31.888Z,49.40
2018-07-17T10:19:36.301Z,54.10
2018-07-17T10:23:40.500Z,56.40
2018-07-17T10:27:44.798Z,54.60
2018-07-17T10:31:49.024Z,51.00
2018-07-17T10:35:53.226Z,53.60
2018-07-17T10:39:57.621Z,49.70
2018-07-17T10:44:02.189Z,53.80
2018-07-17T10:48:06.456Z,49.70
2018-07-17T10:52:10.684Z,50.20
2018-07-17T10:56:15.013Z,47.70
2018-07-17T11:00:19.198Z,48.70
2018-07-17T11:04:24.653Z,50.00
2018-07-17T11:08:28.949Z,50.30
2018-07-17T11:12:33.316Z,54.60
2018-07-17T11:16:37.670Z,56.40
2018-07-17T11:20:41.877Z,55.50
2018-07-17T11:24:46.285Z,54.30
2018-07-17T11:28:50.492Z,54.90
2018-07-17T11:32:54.671Z,51.60
2018-07-17T11:36:59.142Z,55.10
2018-07-17T11:41:03.380Z,55.00
2018-07-17T11:45:07.814Z,53.90
2018-07-17T11:49:12.126Z,53.10
2018-07-17T11:53:16.382Z,54.50
2018-07-17T11:57:20.698Z,55.00
2018-07-17T12:01:24.904Z,57.90
2018-07-17T12:05:29.138Z,58.80
2018-07-17T12:09:34.446Z,58.10
2018-07-17T12:13:38.656Z,58.60
2018-07-17T12:17:42.948Z,54.70
2018-07-17T12:21:47.222Z,56.90
2018-07-17T12:25:51.415Z,55.50
2018-07-17T12:29:55.966Z,52.80
2018-07-17T12:34:00.236Z,55.10
2018-07-17T12:38:04.709Z,51.70
2018-07-17T12:42:09.068Z,52.20
2018-07-17T12:46:13.312Z,53.60
2018-07-17T12:50:17.566Z,52.30
2018-07-17T12:54:21.877Z,50.20
2018-07-17T12:58:26.115Z,48.90
2018-07-17T13:02:30.537Z,49.30
2018-07-17T13:06:34.839Z,44.40
2018-07-17T13:10:39.135Z,39.90
2018-07-17T13:14:43.475Z,42.00
2018-07-17T13:18:47.858Z,43.40
2018-07-17T13:22:52.399Z,42.90
2018-07-17T13:26:56.662Z,43.40
2018-07-17T13:31:01.130Z,36.70
2018-07-17T13:35:05.415Z,31.50
2018-07-17T13:39:11.643Z,37.00
2018-07-17T13:43:16.054Z,29.40
2018-07-17T13:47:20.314Z,27.90
2018-07-17T13:51:24.745Z,30.60
2018-07-17T13:55:29.029Z,27.20
2018-07-17T13:59:33.319Z,26.80
2018-07-17T14:03:37.607Z,25.90
2018-07-17T14:07:42.142Z,23.80
2018-07-17T14:11:46.362Z,24.20
2018-07-17T14:15:50.639Z,23.30
2018-07-17T14:19:54.969Z,24.80
2018-07-17T14:23:59.187Z,22.90
2018-07-17T14:28:03.485Z,22.90
2018-07-17T14:32:07.698Z,22.70
2018-07-17T14:36:12.004Z,23.30
2018-07-17T14:40:16.320Z,24.50
2018-07-17T14:44:20.675Z,24.50
2018-07-17T14:48:24.952Z,23.30
2018-07-17T14:52:29.317Z,24.80
2018-07-17T14:56:33.536Z,24.50
2018-07-17T15:00:37.798Z,22.60
2018-07-17T15:04:42.120Z,22.80
2018-07-17T15:08:46.349Z,21.40
2018-07-17T15:12:50.643Z,20.20
2018-07-17T15:16:54.936Z,21.10
2018-07-17T15:20:59.486Z,21.20
2018-07-17T15:25:03.879Z,21.30
2018-07-17T15:29:08.165Z,19.90
2018-07-17T15:33:12.628Z,20.60
2018-07-17T15:37:17.078Z,20.20
2018-07-17T15:41:21.419Z,21.50
2018-07-17T15:45:25.800Z,20.00
2018-07-17T15:49:30.010Z,20.80
2018-07-17T15:53:34.294Z,21.00
2018-07-17T15:57:38.678Z,22.70
2018-07-17T16:01:42.985Z,22.40
2018-07-17T16:05:47.300Z,22.50
2018-07-17T16:09:51.748Z,22.60
2018-07-17T16:13:56.267Z,27.20
2018-07-17T16:18:00.362Z,27.60
2018-07-17T16:22:04.755Z,28.60
2018-07-17T16:26:09.275Z,28.10
2018-07-17T16:30:13.666Z,28.90
2018-07-17T16:34:18.175Z,29.90
2018-07-17T16:38:22.620Z,32.10
2018-07-17T16:42:27.063Z,33.20
2018-07-17T16:46:31.279Z,34.60
2018-07-17T16:50:35.568Z,36.00
2018-07-17T16:54:39.889Z,37.40
2018-07-17T16:58:44.355Z,38.80
2018-07-17T17:02:48.677Z,36.90
2018-07-17T17:06:52.927Z,37.70
2018-07-17T17:10:57.205Z,43.00
2018-07-17T17:15:01.575Z,39.80
2018-07-17T17:19:06.201Z,39.90
2018-07-17T17:23:10.400Z,42.60
2018-07-17T17:27:14.920Z,42.10
2018-07-17T17:31:19.633Z,47.70
2018-07-17T17:35:24.181Z,41.20
2018-07-17T17:39:28.620Z,44.70
2018-07-17T17:43:33.093Z,48.70
2018-07-17T17:47:37.556Z,48.30
2018-07-17T17:51:41.950Z,49.80
2018-07-17T17:55:46.307Z,50.40
2018-07-17T17:59:50.969Z,51.50
2018-07-17T18:03:55.461Z,54.20
2018-07-17T18:07:59.826Z,56.80
2018-07-17T18:12:04.201Z,56.10
2018-07-17T18:16:08.633Z,57.90
2018-07-17T18:20:13.196Z,55.70
2018-07-17T18:24:17.488Z,59.90
2018-07-17T18:28:22.070Z,62.20
2018-07-17T18:32:26.353Z,63.00
2018-07-17T18:36:30.982Z,63.30
2018-07-17T18:40:35.389Z,65.70
2018-07-17T18:44:40.298Z,66.30
2018-07-17T18:48:49.401Z,67.70
2018-07-17T18:52:53.969Z,69.00
2018-07-17T18:56:58.830Z,68.30
2018-07-17T19:01:03.871Z,69.80
2018-07-17T19:05:08.696Z,70.40
2018-07-17T19:09:13.170Z,71.10
2018-07-17T19:13:17.920Z,72.70
2018-07-17T19:17:22.615Z,72.90
2018-07-17T19:21:27.220Z,72.20
2018-07-17T19:25:31.933Z,72.80
2018-07-17T19:29:37.435Z,73.80
2018-07-17T19:33:46.013Z,74.10
2018-07-17T19:37:50.829Z,75.30
2018-07-17T19:41:55.805Z,75.90
2018-07-17T19:46:00.656Z,76.20
2018-07-17T19:50:06.565Z,76.40
2018-07-17T19:54:11.935Z,77.20
2018-07-17T19:58:19.818Z,78.10
2018-07-17T20:02:25.288Z,78.60
2018-07-17T20:06:30.017Z,78.50
2018-07-17T20:10:34.719Z,80.30
2018-07-17T20:14:38.976Z,80.20
2018-07-17T20:18:43.201Z,80.60
2018-07-17T20:22:48.052Z,81.00
2018-07-17T20:26:52.433Z,81.10
2018-07-17T20:30:57.801Z,83.10
2018-07-17T20:35:02.343Z,83.00
2018-07-17T20:39:08.694Z,83.20
2018-07-17T20:43:13.100Z,83.90
2018-07-17T20:47:17.497Z,83.90
2018-07-17T20:51:21.758Z,84.90
2018-07-17T20:55:25.952Z,85.40
2018-07-17T20:59:30.281Z,85.30
2018-07-17T21:03:34.506Z,86.60
2018-07-17T21:07:38.865Z,87.60
2018-07-17T21:11:43.153Z,87.60
2018-07-17T21:15:47.365Z,87.50
2018-07-17T21:19:51.700Z,89.30
2018-07-17T21:23:55.955Z,89.20
2018-07-17T21:28:00.376Z,89.30
2018-07-17T21:32:04.588Z,90.00
2018-07-17T21:36:08.922Z,90.30
2018-07-17T21:40:13.283Z,90.20
2018-07-17T21:44:17.512Z,90.00
2018-07-17T21:48:21.751Z,90.30
2018-07-17T21:52:26.132Z,90.20
2018-07-17T21:56:30.356Z,90.40
2018-07-17T22:00:34.595Z,90.30
2018-07-17T22:04:39.040Z,90.00
2018-07-17T22:08:43.241Z,89.80
2018-07-17T22:12:47.471Z,89.70
2018-07-17T22:16:51.756Z,89.80
2018-07-17T22:20:55.941Z,89.50
2018-07-17T22:25:00.237Z,87.50
2018-07-17T22:29:04.555Z,88.40
2018-07-17T22:33:08.767Z,88.70
2018-07-17T22:37:13.333Z,89.00
2018-07-17T22:41:17.561Z,89.70
2018-07-17T22:45:21.775Z,89.90
2018-07-17T22:49:26.061Z,90.00
2018-07-17T22:53:30.292Z,90.00
2018-07-17T22:57:34.692Z,90.50
2018-07-17T23:01:38.911Z,90.70
2018-07-17T23:05:43.107Z,90.50
2018-07-17T23:09:47.417Z,90.40
2018-07-17T23:13:51.597Z,90.80
2018-07-17T23:17:55.817Z,90.70
2018-07-17T23:22:00.271Z,90.90
2018-07-17T23:26:04.459Z,90.90
2018-07-17T23:30:08.737Z,90.90
2018-07-17T23:34:13.044Z,91.00
2018-07-17T23:38:17.231Z,90.70
2018-07-17T23:42:21.440Z,91.00
2018-07-17T23:46:25.846Z,91.30
2018-07-17T23:50:30.143Z,91.40
2018-07-17T23:54:34.497Z,91.40
2018-07-17T23:58:38.716Z,91.70
